createdAt,value
2023-02-22T00:00:55.434Z,82.74
2023-02-22T00:01:55.458Z,84.20
2023-02-22T00:02:55.426Z,83.99
2023-02-22T00:03:55.424Z,84.82
2023-02-22T00:04:55.385Z,85.13
2023-02-22T00:05:55.412Z,84.92
2023-02-22T00:06:55.349Z,84.30
2023-02-22T00:07:55.348Z,84.20
2023-02-22T00:08:55.372Z,83.68
2023-02-22T00:09:55.325Z,83.68
2023-02-22T00:10:55.314Z,83.58
2023-02-22T00:11:55.293Z,83.47
2023-02-22T00:12:55.296Z,83.58
2023-02-22T00:13:55.310Z,82.53
2023-02-22T00:14:55.296Z,82.64
2023-02-22T00:15:55.327Z,82.84
2023-02-22T00:16:55.245Z,82.64
2023-02-22T00:17:55.225Z,82.43
2023-02-22T00:18:55.224Z,82.01
2023-02-22T00:19:55.225Z,82.12
2023-02-22T00:20:55.175Z,82.36
2023-02-22T00:21:55.192Z,82.05
2023-02-22T00:22:55.155Z,82.36
2023-02-22T00:23:55.133Z,82.05
2023-02-22T00:24:55.142Z,81.74
2023-02-22T00:25:55.115Z,82.36
2023-02-22T00:26:55.153Z,82.15
2023-02-22T00:27:55.104Z,82.05
2023-02-22T00:28:55.098Z,82.15
2023-02-22T00:29:55.055Z,82.36
2023-02-22T00:30:55.325Z,82.36
2023-02-22T00:31:55.164Z,84.38
2023-02-22T00:32:55.017Z,84.90
2023-02-22T00:33:55.012Z,85.42
2023-02-22T00:34:55.033Z,84.90
2023-02-22T00:35:54.997Z,84.17
2023-02-22T00:36:54.980Z,83.75
2023-02-22T00:37:54.965Z,83.75
2023-02-22T00:38:54.962Z,83.75
2023-02-22T00:39:54.969Z,83.65
2023-02-22T00:40:54.958Z,83.96
2023-02-22T00:41:54.962Z,83.54
2023-02-22T00:42:54.903Z,83.96
2023-02-22T00:43:54.889Z,83.86
2023-02-22T00:44:54.866Z,84.06
2023-02-22T00:45:54.922Z,85.11
2023-02-22T00:46:54.866Z,84.69
2023-02-22T00:47:54.824Z,84.17
2023-02-22T00:48:54.809Z,84.48
2023-02-22T00:49:54.790Z,84.90
2023-02-22T00:50:54.779Z,84.90
2023-02-22T00:51:54.796Z,85.52
2023-02-22T00:52:54.765Z,84.90
2023-02-22T00:53:54.776Z,84.48
2023-02-22T00:54:54.742Z,84.38
2023-02-22T00:55:54.712Z,84.80
2023-02-22T00:56:54.742Z,85.31
2023-02-22T00:57:54.686Z,84.48
2023-02-22T00:58:54.708Z,83.96
2023-02-22T00:59:54.684Z,83.69
2023-02-22T01:00:54.699Z,84.21
2023-02-22T01:01:54.668Z,84.73
2023-02-22T01:02:54.620Z,85.04
2023-02-22T01:03:54.644Z,84.73
2023-02-22T01:04:54.611Z,84.31
2023-02-22T01:05:54.581Z,84.73
2023-02-22T01:06:54.605Z,85.14
2023-02-22T01:07:54.566Z,84.98
2023-02-22T01:08:54.542Z,84.25
2023-02-22T01:09:54.531Z,85.08
2023-02-22T01:10:54.566Z,85.71
2023-02-22T01:11:54.543Z,86.22
2023-02-22T01:12:54.526Z,86.65
2023-02-22T01:13:54.481Z,87.06
2023-02-22T01:14:54.535Z,87.37
2023-02-22T01:15:54.473Z,87.37
2023-02-22T01:16:54.636Z,86.85
2023-02-22T01:17:54.551Z,86.75
2023-02-22T01:18:54.426Z,86.65
2023-02-22T01:19:54.436Z,86.43
2023-02-22T01:20:54.437Z,86.65
2023-02-22T01:21:54.382Z,86.85
2023-02-22T01:22:54.373Z,86.33
2023-02-22T01:23:54.360Z,85.91
2023-02-22T01:24:54.342Z,86.02
2023-02-22T01:25:54.353Z,85.08
2023-02-22T01:26:54.323Z,84.63
2023-02-22T01:27:54.310Z,84.42
2023-02-22T01:28:54.316Z,84.31
2023-02-22T01:29:54.313Z,84.73
2023-02-22T01:30:54.357Z,85.35
2023-02-22T01:31:54.267Z,86.29
2023-02-22T01:32:54.293Z,86.60
2023-02-22T01:33:54.252Z,86.60
2023-02-22T01:34:54.215Z,85.98
2023-02-22T01:35:54.224Z,85.35
2023-02-22T01:36:54.192Z,84.83
2023-02-22T01:37:54.153Z,84.31
2023-02-22T01:38:54.182Z,84.11
2023-02-22T01:39:54.140Z,84.11
2023-02-22T01:40:54.169Z,84.52
2023-02-22T01:41:54.127Z,84.87
2023-02-22T01:42:54.101Z,84.42
2023-02-22T01:43:54.113Z,84.00
2023-02-22T01:44:54.082Z,84.42
2023-02-22T01:45:54.093Z,84.35
2023-02-22T01:46:54.054Z,84.35
2023-02-22T01:47:54.063Z,83.94
2023-02-22T01:48:54.066Z,83.58
2023-02-22T01:49:54.007Z,83.83
2023-02-22T01:50:54.003Z,83.73
2023-02-22T01:51:53.970Z,83.62
2023-02-22T01:52:53.994Z,83.62
2023-02-22T01:53:53.983Z,83.83
2023-02-22T01:54:53.940Z,83.73
2023-02-22T01:55:53.930Z,83.52
2023-02-22T01:56:53.919Z,83.62
2023-02-22T01:57:53.913Z,84.35
2023-02-22T01:58:53.932Z,84.98
2023-02-22T01:59:53.914Z,84.87
2023-02-22T02:00:53.850Z,84.45
2023-02-22T02:01:53.897Z,84.04
2023-02-22T02:02:53.836Z,83.83
2023-02-22T02:03:53.894Z,83.94
2023-02-22T02:04:53.845Z,83.83
2023-02-22T02:05:53.801Z,83.52
2023-02-22T02:06:53.781Z,83.52
2023-02-22T02:07:53.774Z,83.73
2023-02-22T02:08:53.778Z,83.42
2023-02-22T02:09:53.758Z,83.31
2023-02-22T02:10:53.753Z,84.56
2023-02-22T02:11:53.726Z,83.87
2023-02-22T02:12:53.730Z,84.70
2023-02-22T02:13:53.727Z,85.85
2023-02-22T02:14:53.685Z,86.16
2023-02-22T02:15:53.681Z,86.47
2023-02-22T02:16:53.776Z,86.27
2023-02-22T02:17:53.638Z,85.74
2023-02-22T02:18:53.664Z,85.22
2023-02-22T02:19:53.628Z,84.91
2023-02-22T02:20:53.597Z,84.81
2023-02-22T02:21:53.587Z,84.70
2023-02-22T02:22:53.600Z,85.12
2023-02-22T02:23:53.565Z,85.53
2023-02-22T02:24:53.570Z,85.22
2023-02-22T02:25:53.532Z,85.02
2023-02-22T02:26:53.530Z,84.91
2023-02-22T02:27:53.524Z,84.70
2023-02-22T02:28:53.510Z,84.60
2023-02-22T02:29:53.528Z,84.50
2023-02-22T02:30:53.475Z,84.39
2023-02-22T02:31:53.582Z,84.28
2023-02-22T02:32:53.455Z,84.39
2023-02-22T02:33:53.439Z,85.33
2023-02-22T02:34:53.456Z,85.22
2023-02-22T02:35:53.408Z,84.84
2023-02-22T02:36:53.404Z,84.60
2023-02-22T02:37:53.391Z,84.64
2023-02-22T02:38:53.513Z,84.33
2023-02-22T02:39:53.394Z,84.43
2023-02-22T02:40:53.356Z,85.78
2023-02-22T02:41:53.379Z,85.78
2023-02-22T02:42:53.312Z,86.20
2023-02-22T02:43:53.306Z,86.41
2023-02-22T02:44:53.294Z,85.78
2023-02-22T02:45:53.309Z,85.26
2023-02-22T02:46:53.305Z,85.47
2023-02-22T02:47:53.261Z,85.58
2023-02-22T02:48:53.248Z,86.10
2023-02-22T02:49:53.231Z,86.83
2023-02-22T02:50:53.230Z,86.10
2023-02-22T02:51:53.218Z,85.36
2023-02-22T02:52:53.196Z,85.26
2023-02-22T02:53:53.179Z,85.26
2023-02-22T02:54:53.183Z,87.55
2023-02-22T02:55:53.153Z,87.04
2023-02-22T02:56:53.169Z,86.20
2023-02-22T02:57:53.137Z,86.10
2023-02-22T02:58:53.283Z,86.20
2023-02-22T02:59:53.111Z,86.30
2023-02-22T03:00:53.077Z,86.30
2023-02-22T03:01:53.150Z,86.20
2023-02-22T03:02:53.063Z,86.51
2023-02-22T03:03:53.036Z,86.30
2023-02-22T03:04:53.069Z,86.30
2023-02-22T03:05:53.059Z,86.10
2023-02-22T03:06:53.007Z,86.10
2023-02-22T03:07:53.017Z,85.99
2023-02-22T03:08:52.976Z,85.89
2023-02-22T03:09:52.969Z,85.68
2023-02-22T03:10:52.965Z,85.89
2023-02-22T03:11:52.941Z,85.68
2023-02-22T03:12:52.988Z,85.47
2023-02-22T03:13:52.934Z,85.26
2023-02-22T03:14:52.904Z,85.47
2023-02-22T03:15:52.907Z,85.36
2023-02-22T03:16:52.890Z,86.13
2023-02-22T03:17:52.891Z,86.55
2023-02-22T03:18:52.855Z,86.03
2023-02-22T03:19:52.839Z,85.93
2023-02-22T03:20:52.834Z,86.66
2023-02-22T03:21:52.813Z,86.55
2023-02-22T03:22:52.855Z,86.45
2023-02-22T03:23:52.781Z,87.39
2023-02-22T03:24:52.775Z,87.60
2023-02-22T03:25:52.758Z,88.01
2023-02-22T03:26:52.801Z,87.70
2023-02-22T03:27:52.801Z,87.07
2023-02-22T03:28:52.716Z,86.55
2023-02-22T03:29:52.701Z,86.35
2023-02-22T03:30:52.731Z,86.13
2023-02-22T03:31:52.706Z,86.20
2023-02-22T03:32:52.697Z,86.10
2023-02-22T03:33:52.649Z,85.78
2023-02-22T03:34:52.669Z,85.78
2023-02-22T03:35:52.634Z,85.58
2023-02-22T03:36:52.622Z,85.58
2023-02-22T03:37:52.626Z,85.36
2023-02-22T03:38:52.582Z,84.95
2023-02-22T03:39:52.618Z,84.74
2023-02-22T03:40:52.567Z,84.84
2023-02-22T03:41:52.604Z,84.84
2023-02-22T03:42:52.533Z,85.16
2023-02-22T03:43:52.585Z,85.72
2023-02-22T03:44:52.541Z,86.87
2023-02-22T03:45:52.501Z,87.70
2023-02-22T03:46:52.489Z,87.28
2023-02-22T03:47:52.520Z,87.07
2023-02-22T03:48:52.453Z,87.70
2023-02-22T03:49:52.447Z,87.81
2023-02-22T03:50:52.440Z,87.81
2023-02-22T03:51:52.429Z,87.60
2023-02-22T03:52:52.467Z,87.18
2023-02-22T03:53:52.412Z,86.66
2023-02-22T03:54:52.390Z,86.83
2023-02-22T03:55:52.363Z,86.61
2023-02-22T03:56:52.346Z,86.30
2023-02-22T03:57:52.367Z,86.30
2023-02-22T03:58:52.332Z,86.87
2023-02-22T03:59:52.318Z,87.28
2023-02-22T04:00:52.334Z,87.39
2023-02-22T04:01:52.298Z,87.49
2023-02-22T04:02:52.314Z,87.70
2023-02-22T04:03:52.284Z,87.74
2023-02-22T04:04:52.279Z,88.16
2023-02-22T04:05:52.239Z,87.84
2023-02-22T04:06:52.243Z,88.16
2023-02-22T04:07:52.209Z,88.26
2023-02-22T04:08:52.208Z,88.78
2023-02-22T04:09:52.381Z,88.78
2023-02-22T04:10:52.170Z,88.64
2023-02-22T04:11:52.213Z,88.53
2023-02-22T04:12:52.138Z,88.53
2023-02-22T04:13:52.130Z,88.43
2023-02-22T04:14:52.133Z,88.01
2023-02-22T04:15:52.177Z,87.60
2023-02-22T04:16:52.092Z,87.28
2023-02-22T04:17:52.093Z,87.07
2023-02-22T04:18:52.105Z,86.97
2023-02-22T04:19:52.048Z,86.87
2023-02-22T04:20:52.044Z,87.14
2023-02-22T04:21:52.029Z,87.14
2023-02-22T04:22:52.014Z,87.14
2023-02-22T04:23:52.032Z,86.93
2023-02-22T04:24:51.981Z,86.83
2023-02-22T04:25:51.968Z,86.83
2023-02-22T04:26:51.969Z,87.45
2023-02-22T04:27:51.983Z,88.64
2023-02-22T04:28:51.952Z,88.75
2023-02-22T04:29:51.915Z,88.43
2023-02-22T04:30:51.957Z,88.53
2023-02-22T04:31:51.947Z,87.81
2023-02-22T04:32:51.921Z,87.39
2023-02-22T04:33:51.870Z,87.28
2023-02-22T04:34:51.881Z,87.18
2023-02-22T04:35:51.842Z,86.97
2023-02-22T04:36:51.833Z,86.97
2023-02-22T04:37:51.878Z,86.76
2023-02-22T04:38:51.801Z,86.55
2023-02-22T04:39:51.841Z,86.35
2023-02-22T04:40:51.774Z,86.13
2023-02-22T04:41:51.790Z,85.93
2023-02-22T04:42:51.777Z,85.93
2023-02-22T04:43:51.744Z,86.35
2023-02-22T04:44:51.737Z,86.66
2023-02-22T04:45:51.712Z,86.55
2023-02-22T04:46:51.702Z,86.66
2023-02-22T04:47:51.705Z,87.18
2023-02-22T04:48:51.722Z,87.43
2023-02-22T04:49:51.689Z,87.43
2023-02-22T04:50:51.652Z,87.32
2023-02-22T04:51:51.641Z,88.57
2023-02-22T04:52:51.620Z,88.57
2023-02-22T04:53:51.604Z,87.95
2023-02-22T04:54:51.617Z,87.60
2023-02-22T04:55:51.584Z,87.49
2023-02-22T04:56:51.575Z,87.28
2023-02-22T04:57:51.588Z,87.39
2023-02-22T04:58:51.544Z,86.97
2023-02-22T04:59:51.560Z,86.76
2023-02-22T05:00:51.518Z,86.35
2023-02-22T05:01:51.528Z,86.03
2023-02-22T05:02:51.571Z,86.03
2023-02-22T05:03:51.484Z,86.03
2023-02-22T05:04:51.579Z,86.03
2023-02-22T05:05:51.482Z,86.03
2023-02-22T05:06:53.328Z,85.93
2023-02-22T05:07:51.429Z,86.03
2023-02-22T05:08:51.422Z,86.13
2023-02-22T05:09:51.416Z,86.03
2023-02-22T05:10:51.382Z,86.03
2023-02-22T05:11:51.408Z,86.35
2023-02-22T05:12:51.370Z,86.35
2023-02-22T05:13:51.350Z,86.24
2023-02-22T05:14:51.343Z,86.03
2023-02-22T05:15:51.366Z,86.55
2023-02-22T05:16:51.317Z,86.87
2023-02-22T05:17:51.290Z,87.01
2023-02-22T05:18:51.296Z,86.59
2023-02-22T05:19:51.315Z,86.59
2023-02-22T05:20:51.323Z,86.80
2023-02-22T05:21:51.288Z,87.43
2023-02-22T05:22:51.251Z,87.12
2023-02-22T05:23:51.272Z,86.69
2023-02-22T05:24:51.203Z,86.49
2023-02-22T05:25:51.231Z,86.69
2023-02-22T05:26:51.295Z,86.38
2023-02-22T05:27:51.159Z,86.07
2023-02-22T05:28:51.261Z,86.59
2023-02-22T05:29:51.143Z,86.59
2023-02-22T05:30:51.161Z,86.28
2023-02-22T05:31:51.353Z,86.07
2023-02-22T05:32:51.109Z,85.86
2023-02-22T05:33:51.146Z,85.76
2023-02-22T05:34:51.068Z,85.65
2023-02-22T05:35:51.044Z,85.76
2023-02-22T05:36:51.043Z,85.55
2023-02-22T05:37:51.057Z,85.34
2023-02-22T05:38:51.034Z,85.24
2023-02-22T05:39:51.038Z,85.97
2023-02-22T05:40:50.987Z,86.07
2023-02-22T05:41:50.985Z,86.07
2023-02-22T05:42:51.000Z,86.07
2023-02-22T05:43:50.963Z,85.97
2023-02-22T05:44:50.941Z,85.97
2023-02-22T05:45:50.931Z,85.76
2023-02-22T05:46:51.116Z,85.97
2023-02-22T05:47:50.920Z,86.63
2023-02-22T05:48:50.927Z,87.26
2023-02-22T05:49:50.867Z,87.99
2023-02-22T05:50:50.877Z,88.20
2023-02-22T05:51:50.851Z,88.41
2023-02-22T05:52:50.846Z,87.99
2023-02-22T05:53:50.854Z,87.78
2023-02-22T05:54:50.825Z,87.68
2023-02-22T05:55:50.802Z,87.15
2023-02-22T05:56:50.778Z,86.84
2023-02-22T05:57:50.808Z,86.63
2023-02-22T05:58:50.761Z,86.74
2023-02-22T05:59:50.759Z,86.94
2023-02-22T06:00:50.764Z,86.84
2023-02-22T06:01:50.755Z,86.53
2023-02-22T06:02:50.738Z,86.53
2023-02-22T06:03:50.690Z,86.11
2023-02-22T06:04:50.720Z,86.00
2023-02-22T06:05:50.733Z,86.00
2023-02-22T06:06:50.669Z,86.21
2023-02-22T06:07:50.646Z,86.32
2023-02-22T06:08:50.653Z,86.63
2023-02-22T06:09:50.647Z,87.37
2023-02-22T06:10:50.615Z,87.57
2023-02-22T06:11:50.593Z,87.57
2023-02-22T06:12:50.632Z,87.43
2023-02-22T06:13:50.586Z,86.69
2023-02-22T06:14:50.552Z,86.28
2023-02-22T06:15:50.621Z,85.97
2023-02-22T06:16:50.561Z,86.28
2023-02-22T06:17:50.604Z,85.97
2023-02-22T06:18:50.503Z,86.21
2023-02-22T06:19:50.486Z,86.11
2023-02-22T06:20:50.480Z,86.21
2023-02-22T06:21:50.462Z,86.32
2023-02-22T06:22:50.455Z,86.84
2023-02-22T06:23:50.429Z,86.94
2023-02-22T06:24:50.450Z,86.63
2023-02-22T06:25:50.418Z,86.53
2023-02-22T06:26:50.384Z,86.21
2023-02-22T06:27:50.384Z,86.00
2023-02-22T06:28:50.397Z,85.80
2023-02-22T06:29:50.366Z,85.90
2023-02-22T06:30:50.342Z,85.90
2023-02-22T06:31:50.438Z,86.32
2023-02-22T06:32:50.302Z,86.63
2023-02-22T06:33:50.327Z,86.94
2023-02-22T06:34:50.299Z,87.37
2023-02-22T06:35:50.322Z,87.05
2023-02-22T06:36:50.266Z,86.63
2023-02-22T06:37:50.269Z,86.63
2023-02-22T06:38:50.265Z,87.05
2023-02-22T06:39:50.236Z,87.05
2023-02-22T06:40:50.206Z,86.84
2023-02-22T06:41:50.224Z,87.57
2023-02-22T06:42:50.180Z,88.20
2023-02-22T06:43:50.170Z,87.78
2023-02-22T06:44:51.734Z,87.26
2023-02-22T06:45:50.159Z,86.94
2023-02-22T06:46:50.140Z,86.74
2023-02-22T06:47:50.115Z,86.63
2023-02-22T06:48:50.094Z,86.43
2023-02-22T06:49:50.107Z,86.43
2023-02-22T06:50:50.091Z,86.74
2023-02-22T06:51:50.092Z,86.74
2023-02-22T06:52:50.052Z,87.26
2023-02-22T06:53:50.039Z,87.26
2023-02-22T06:54:50.051Z,87.32
2023-02-22T06:55:50.028Z,87.22
2023-02-22T06:56:50.085Z,87.01
2023-02-22T06:57:50.004Z,87.63
2023-02-22T06:58:49.996Z,87.53
2023-02-22T06:59:49.958Z,87.12
2023-02-22T07:00:50.018Z,86.91
2023-02-22T07:01:49.927Z,86.91
2023-02-22T07:02:49.925Z,87.12
2023-02-22T07:03:49.905Z,86.91
2023-02-22T07:04:49.902Z,87.12
2023-02-22T07:05:49.916Z,87.22
2023-02-22T07:06:49.895Z,87.63
2023-02-22T07:07:49.883Z,87.43
2023-02-22T07:08:49.891Z,87.84
2023-02-22T07:09:49.827Z,88.16
2023-02-22T07:10:49.842Z,87.84
2023-02-22T07:11:49.799Z,87.84
2023-02-22T07:12:49.824Z,87.95
2023-02-22T07:13:49.794Z,87.70
2023-02-22T07:14:49.761Z,87.60
2023-02-22T07:15:49.783Z,87.49
2023-02-22T07:16:49.739Z,87.49
2023-02-22T07:17:49.759Z,87.49
2023-02-22T07:18:49.760Z,87.49
2023-02-22T07:19:49.716Z,87.39
2023-02-22T07:20:49.730Z,87.18
2023-02-22T07:21:49.681Z,87.28
2023-02-22T07:22:49.676Z,87.24
2023-02-22T07:23:49.669Z,87.04
2023-02-22T07:24:49.626Z,87.14
2023-02-22T07:25:49.661Z,87.24
2023-02-22T07:26:49.682Z,87.35
2023-02-22T07:27:49.610Z,87.24
2023-02-22T07:28:49.589Z,87.55
2023-02-22T07:29:49.569Z,87.30
2023-02-22T07:30:49.597Z,86.99
2023-02-22T07:31:49.641Z,87.10
2023-02-22T07:32:49.565Z,86.89
2023-02-22T07:33:49.521Z,86.68
2023-02-22T07:34:49.528Z,86.89
2023-02-22T07:35:49.505Z,86.85
2023-02-22T07:36:49.514Z,86.75
2023-02-22T07:37:49.466Z,86.54
2023-02-22T07:38:49.449Z,86.22
2023-02-22T07:39:49.451Z,86.08
2023-02-22T07:40:49.444Z,86.19
2023-02-22T07:41:49.432Z,86.19
2023-02-22T07:42:49.431Z,85.98
2023-02-22T07:43:49.407Z,86.15
2023-02-22T07:44:49.462Z,85.94
2023-02-22T07:45:49.397Z,85.73
2023-02-22T07:46:49.393Z,86.52
2023-02-22T07:47:49.347Z,86.21
2023-02-22T07:48:49.323Z,85.80
2023-02-22T07:49:49.340Z,85.49
2023-02-22T07:50:49.301Z,85.03
2023-02-22T07:51:49.335Z,84.92
2023-02-22T07:52:49.271Z,84.41
2023-02-22T07:53:49.268Z,83.95
2023-02-22T07:54:49.242Z,84.05
2023-02-22T07:55:49.236Z,83.91
2023-02-22T07:56:49.264Z,84.12
2023-02-22T07:57:49.214Z,83.46
2023-02-22T07:58:49.196Z,82.94
2023-02-22T07:59:49.198Z,82.01
2023-02-22T08:00:49.178Z,81.45
2023-02-22T08:01:49.169Z,81.76
2023-02-22T08:02:49.229Z,80.99
2023-02-22T08:03:49.180Z,80.06
2023-02-22T08:04:49.120Z,80.37
2023-02-22T08:05:49.090Z,80.23
2023-02-22T08:06:49.109Z,80.13
2023-02-22T08:07:49.103Z,80.09
2023-02-22T08:08:49.099Z,80.51
2023-02-22T08:09:49.055Z,79.99
2023-02-22T08:10:49.054Z,79.33
2023-02-22T08:11:49.031Z,78.92
2023-02-22T08:12:49.032Z,78.47
2023-02-22T08:13:49.027Z,77.84
2023-02-22T08:14:48.988Z,77.09
2023-02-22T08:15:48.976Z,77.09
2023-02-22T08:16:49.012Z,76.46
2023-02-22T08:17:48.949Z,75.09
2023-02-22T08:18:48.920Z,74.46
2023-02-22T08:19:48.937Z,74.36
2023-02-22T08:20:48.935Z,74.22
2023-02-22T08:21:48.886Z,73.60
2023-02-22T08:22:48.914Z,73.05
2023-02-22T08:23:48.858Z,72.43
2023-02-22T08:24:48.890Z,72.40
2023-02-22T08:25:48.842Z,72.30
2023-02-22T08:26:48.845Z,72.26
2023-02-22T08:27:48.822Z,72.47
2023-02-22T08:28:48.816Z,70.17
2023-02-22T08:29:48.782Z,70.65
2023-02-22T08:30:48.849Z,70.75
2023-02-22T08:31:48.851Z,70.13
2023-02-22T08:32:48.891Z,68.35
2023-02-22T08:33:48.762Z,69.07
2023-02-22T08:34:48.711Z,67.90
2023-02-22T08:35:48.722Z,69.65
2023-02-22T08:36:48.709Z,68.29
2023-02-22T08:37:48.684Z,67.36
2023-02-22T08:38:48.666Z,68.05
2023-02-22T08:39:48.675Z,68.02
2023-02-22T08:40:48.641Z,66.78
2023-02-22T08:41:48.662Z,65.62
2023-02-22T08:42:48.679Z,65.62
2023-02-22T08:43:48.598Z,66.51
2023-02-22T08:44:48.585Z,65.17
2023-02-22T08:45:48.712Z,63.91
2023-02-22T08:46:48.571Z,63.91
2023-02-22T08:47:48.557Z,63.40
2023-02-22T08:48:48.543Z,62.75
2023-02-22T08:49:48.518Z,63.89
2023-02-22T08:50:48.502Z,63.98
2023-02-22T08:51:48.498Z,64.06
2023-02-22T08:52:48.508Z,62.93
2023-02-22T08:53:48.475Z,61.67
2023-02-22T08:54:48.439Z,61.57
2023-02-22T08:55:48.461Z,61.57
2023-02-22T08:56:48.420Z,61.74
2023-02-22T08:57:48.413Z,61.64
2023-02-22T08:58:48.383Z,61.71
2023-02-22T08:59:48.389Z,61.10
2023-02-22T09:00:48.397Z,60.79
2023-02-22T09:01:48.455Z,59.33
2023-02-22T09:02:48.367Z,60.35
2023-02-22T09:03:48.429Z,60.22
2023-02-22T09:04:48.307Z,59.50
2023-02-22T09:05:48.378Z,59.50
2023-02-22T09:06:48.309Z,58.25
2023-02-22T09:07:48.294Z,58.84
2023-02-22T09:08:48.265Z,57.51
2023-02-22T09:09:48.275Z,57.79
2023-02-22T09:10:48.228Z,57.45
2023-02-22T09:11:48.212Z,58.07
2023-02-22T09:12:48.229Z,54.05
2023-02-22T09:13:48.194Z,55.08
2023-02-22T09:14:48.176Z,54.13
2023-02-22T09:15:48.153Z,55.97
2023-02-22T09:16:48.159Z,54.41
2023-02-22T09:17:48.168Z,54.59
2023-02-22T09:18:48.150Z,54.18
2023-02-22T09:19:48.113Z,53.44
2023-02-22T09:20:48.117Z,53.14
2023-02-22T09:21:48.096Z,53.01
2023-02-22T09:22:48.127Z,54.74
2023-02-22T09:23:48.081Z,52.27
2023-02-22T09:24:48.051Z,48.60
2023-02-22T09:25:48.021Z,47.99
2023-02-22T09:26:48.015Z,49.42
2023-02-22T09:27:48.086Z,49.32
2023-02-22T09:28:48.031Z,48.07
2023-02-22T09:29:47.976Z,48.68
2023-02-22T09:30:47.978Z,48.79
2023-02-22T09:31:48.000Z,48.96
2023-02-22T09:32:48.160Z,48.25
2023-02-22T09:33:47.921Z,48.54
2023-02-22T09:34:47.906Z,48.54
2023-02-22T09:35:47.940Z,47.90
2023-02-22T09:36:47.881Z,47.70
2023-02-22T09:37:47.873Z,48.08
2023-02-22T09:38:47.846Z,48.08
2023-02-22T09:39:47.958Z,47.66
2023-02-22T09:40:47.855Z,47.33
2023-02-22T09:41:47.803Z,47.00
2023-02-22T09:42:47.856Z,46.06
2023-02-22T09:43:47.828Z,45.05
2023-02-22T09:44:47.777Z,45.05
2023-02-22T09:45:47.791Z,45.05
2023-02-22T09:46:47.741Z,46.57
2023-02-22T09:47:47.801Z,46.45
2023-02-22T09:48:47.720Z,46.04
2023-02-22T09:49:47.725Z,45.23
2023-02-22T09:50:47.706Z,45.82
2023-02-22T09:51:47.699Z,45.82
2023-02-22T09:52:47.758Z,46.00
2023-02-22T09:53:47.662Z,44.68
2023-02-22T09:54:47.679Z,43.35
2023-02-22T09:55:47.633Z,43.65
2023-02-22T09:56:47.625Z,43.75
2023-02-22T09:57:47.673Z,42.23
2023-02-22T09:58:47.608Z,42.52
2023-02-22T09:59:47.587Z,43.02
2023-02-22T10:00:47.546Z,43.20
2023-02-22T10:01:47.559Z,41.89
2023-02-22T10:02:48.314Z,41.66
2023-02-22T10:03:47.596Z,41.06
2023-02-22T10:04:47.520Z,41.36
2023-02-22T10:05:47.503Z,40.25
2023-02-22T10:06:47.507Z,40.33
2023-02-22T10:07:47.459Z,40.03
2023-02-22T10:08:47.462Z,40.33
2023-02-22T10:09:47.444Z,38.92
2023-02-22T10:10:47.428Z,38.61
2023-02-22T10:11:47.442Z,39.00
2023-02-22T10:12:47.443Z,39.40
2023-02-22T10:13:47.390Z,38.59
2023-02-22T10:14:47.383Z,37.08
2023-02-22T10:15:47.402Z,38.61
2023-02-22T10:16:47.486Z,39.24
2023-02-22T10:17:47.352Z,39.12
2023-02-22T10:18:47.323Z,39.32
2023-02-22T10:19:47.301Z,38.41
2023-02-22T10:20:47.319Z,37.59
2023-02-22T10:21:47.277Z,38.70
2023-02-22T10:22:47.311Z,37.57
2023-02-22T10:23:47.271Z,38.46
2023-02-22T10:24:47.267Z,36.82
2023-02-22T10:25:47.260Z,38.64
2023-02-22T10:26:47.208Z,36.71
2023-02-22T10:27:47.209Z,35.19
2023-02-22T10:28:47.199Z,35.90
2023-02-22T10:29:47.191Z,35.90
2023-02-22T10:30:47.229Z,36.10
2023-02-22T10:31:47.354Z,35.19
2023-02-22T10:32:47.135Z,36.49
2023-02-22T10:33:47.132Z,36.47
2023-02-22T10:34:47.117Z,36.98
2023-02-22T10:35:47.378Z,36.35
2023-02-22T10:36:47.109Z,35.05
2023-02-22T10:37:47.128Z,36.04
2023-02-22T10:38:47.068Z,37.73
2023-02-22T10:39:47.131Z,36.92
2023-02-22T10:40:47.072Z,36.80
2023-02-22T10:41:47.007Z,34.69
2023-02-22T10:42:47.005Z,34.39
2023-02-22T10:43:46.994Z,33.99
2023-02-22T10:44:46.964Z,34.39
2023-02-22T10:45:47.010Z,34.09
2023-02-22T10:46:46.965Z,33.59
2023-02-22T10:47:46.945Z,33.67
2023-02-22T10:48:46.953Z,34.27
2023-02-22T10:49:46.918Z,33.55
2023-02-22T10:50:46.928Z,34.44
2023-02-22T10:51:46.908Z,33.64
2023-02-22T10:52:46.894Z,34.42
2023-02-22T10:53:46.875Z,34.63
2023-02-22T10:54:46.871Z,32.62
2023-02-22T10:55:46.875Z,30.93
2023-02-22T10:56:46.864Z,32.43
2023-02-22T10:57:46.842Z,32.92
2023-02-22T10:58:46.794Z,32.82
2023-02-22T10:59:46.786Z,32.40
2023-02-22T11:00:46.821Z,32.10
2023-02-22T11:01:46.880Z,33.11
2023-02-22T11:02:46.742Z,32.39
2023-02-22T11:03:46.729Z,31.29
2023-02-22T11:04:46.750Z,32.59
2023-02-22T11:05:46.717Z,31.99
2023-02-22T11:06:46.724Z,33.59
2023-02-22T11:07:46.706Z,34.38
2023-02-22T11:08:46.662Z,33.67
2023-02-22T11:09:46.719Z,34.36
2023-02-22T11:10:46.625Z,33.86
2023-02-22T11:11:46.627Z,33.74
2023-02-22T11:12:46.645Z,34.14
2023-02-22T11:13:46.583Z,34.14
2023-02-22T11:14:46.642Z,33.54
2023-02-22T11:15:46.560Z,33.74
2023-02-22T11:16:46.649Z,33.66
2023-02-22T11:17:46.536Z,34.05
2023-02-22T11:18:46.551Z,34.24
2023-02-22T11:19:46.515Z,34.26
2023-02-22T11:20:46.501Z,34.76
2023-02-22T11:21:46.488Z,34.84
2023-02-22T11:22:46.518Z,35.16
2023-02-22T11:23:46.486Z,34.76
2023-02-22T11:24:49.216Z,34.86
2023-02-22T11:25:46.443Z,34.86
2023-02-22T11:26:46.412Z,35.05
2023-02-22T11:27:46.440Z,34.44
2023-02-22T11:28:46.406Z,34.63
2023-02-22T11:29:46.426Z,34.03
2023-02-22T11:30:46.494Z,33.93
2023-02-22T11:31:46.489Z,33.64
2023-02-22T11:32:46.377Z,33.94
2023-02-22T11:33:46.338Z,33.53
2023-02-22T11:34:46.348Z,33.93
2023-02-22T11:35:46.307Z,33.41
2023-02-22T11:36:46.280Z,33.71
2023-02-22T11:37:46.307Z,32.79
2023-02-22T11:38:46.290Z,33.50
2023-02-22T11:39:46.318Z,34.19
2023-02-22T11:40:46.236Z,32.79
2023-02-22T11:41:46.216Z,32.89
2023-02-22T11:42:46.197Z,33.39
2023-02-22T11:43:46.257Z,33.39
2023-02-22T11:44:46.180Z,33.70
2023-02-22T11:45:57.812Z,34.41
2023-02-22T11:46:46.302Z,33.80
2023-02-22T11:47:46.145Z,33.50
2023-02-22T11:48:46.170Z,34.00
2023-02-22T11:49:46.114Z,34.31
2023-02-22T11:50:46.095Z,34.93
2023-02-22T11:51:46.087Z,35.83
2023-02-22T11:52:46.081Z,35.53
2023-02-22T11:53:46.164Z,36.31
2023-02-22T11:54:46.059Z,36.31
2023-02-22T11:55:46.042Z,35.61
2023-02-22T11:56:46.070Z,34.59
2023-02-22T11:57:46.017Z,35.39
2023-02-22T11:58:46.032Z,34.99
2023-02-22T11:59:45.989Z,35.80
2023-02-22T12:00:46.029Z,35.08
2023-02-22T12:01:45.992Z,34.26
2023-02-22T12:02:56.442Z,34.36
2023-02-22T12:03:46.051Z,34.76
2023-02-22T12:04:45.978Z,34.36
2023-02-22T12:05:45.904Z,34.34
2023-02-22T12:06:45.969Z,33.95
2023-02-22T12:07:45.887Z,33.35
2023-02-22T12:08:45.862Z,33.45
2023-02-22T12:09:45.900Z,32.85
2023-02-22T12:10:45.844Z,33.76
2023-02-22T12:11:45.837Z,33.66
2023-02-22T12:12:45.818Z,33.16
2023-02-22T12:13:45.838Z,33.47
2023-02-22T12:14:45.811Z,34.05
2023-02-22T12:15:45.805Z,34.34
2023-02-22T12:16:45.766Z,34.25
2023-02-22T12:17:58.118Z,33.45
2023-02-22T12:18:45.759Z,33.84
2023-02-22T12:19:45.722Z,32.55
2023-02-22T12:20:45.692Z,32.65
2023-02-22T12:21:45.698Z,32.15
2023-02-22T12:22:45.686Z,33.83
2023-02-22T12:23:45.702Z,33.13
2023-02-22T12:24:45.690Z,33.43
2023-02-22T12:25:45.653Z,33.65
2023-02-22T12:26:45.634Z,33.25
2023-02-22T12:27:45.659Z,32.85
2023-02-22T12:28:45.714Z,33.16
2023-02-22T12:29:45.586Z,32.97
2023-02-22T12:30:45.701Z,33.16
2023-02-22T12:31:45.808Z,33.48
2023-02-22T12:32:45.704Z,33.26
2023-02-22T12:33:45.576Z,32.06
2023-02-22T12:34:45.585Z,32.56
2023-02-22T12:35:45.528Z,33.04
2023-02-22T12:36:45.559Z,31.95
2023-02-22T12:37:45.524Z,32.26
2023-02-22T12:38:45.485Z,31.55
2023-02-22T12:39:53.147Z,32.85
2023-02-22T12:40:45.463Z,32.35
2023-02-22T12:41:45.486Z,32.75
2023-02-22T12:42:45.425Z,32.67
2023-02-22T12:43:45.409Z,32.86
2023-02-22T12:44:45.394Z,32.68
2023-02-22T12:45:45.410Z,32.79
2023-02-22T12:46:45.425Z,33.31
2023-02-22T12:47:45.359Z,33.89
2023-02-22T12:48:45.387Z,33.39
2023-02-22T12:49:45.349Z,33.89
2023-02-22T12:50:45.326Z,32.61
2023-02-22T12:51:45.333Z,33.00
2023-02-22T12:52:45.309Z,33.61